Time;durP1;ratioP1;P1;durP2;ratioP2;P2;SDS_P1;SDS_P2;PMS_P1;PMS_P2;Temp;Humidity;BMP_temperature;BMP_pressure;BME280_temperature;BME280_humidity;BME280_pressure;Samples;Min_cycle;Max_cycle;Signal;HPM_P1;HPM_P2
2022/12/08 00:01:38;;;;;;;71.50;50.28;;;;;;;9.80;100.00;99882.06;5066553;28;20028;-68
2022/12/08 00:04:04;;;;;;;63.20;44.13;;;;;;;9.77;100.00;99897.38;5073528;28;20059;-68
2022/12/08 00:09:29;;;;;;;58.95;38.45;;;;;;;9.72;100.00;99884.81;5073320;28;20047;-69
2022/12/08 00:12:03;;;;;;;55.53;37.35;;;;;;;9.79;100.00;99896.47;5073682;28;20438;-68
2022/12/08 00:14:39;;;;;;;54.70;34.13;;;;;;;9.25;100.00;99817.50;5072837;28;20032;-68
2022/12/08 00:17:06;;;;;;;49.25;31.95;;;;;;;9.32;100.00;99844.41;5072849;28;20132;-68
2022/12/08 00:19:32;;;;;;;46.15;30.13;;;;;;;9.54;100.00;99895.44;5072644;28;20036;-68
2022/12/08 00:21:58;;;;;;;44.67;28.30;;;;;;;9.63;100.00;99910.41;5073642;28;20039;-67
2022/12/08 00:24:28;;;;;;;47.63;28.23;;;;;;;9.68;100.00;99895.91;5073435;28;20619;-66
2022/12/08 00:26:54;;;;;;;58.13;38.63;;;;;;;9.50;100.00;99899.75;5055149;28;20117;-67
2022/12/08 00:29:19;;;;;;;54.63;35.97;;;;;;;9.26;100.00;99848.78;5055083;28;20133;-67
2022/12/08 00:31:45;;;;;;;57.80;38.60;;;;;;;9.44;100.00;99851.69;5073337;28;20547;-66
2022/12/08 00:34:12;;;;;;;55.17;38.70;;;;;;;9.58;100.00;99872.50;5073344;28;20032;-66
2022/12/08 00:36:38;;;;;;;58.83;38.88;;;;;;;9.30;100.00;99879.13;5073269;28;20032;-66
2022/12/08 00:39:03;;;;;;;59.00;38.30;;;;;;;9.50;100.00;99907.38;5072409;28;20032;-66
2022/12/08 00:44:15;;;;;;;55.50;37.40;;;;;;;9.45;100.00;99873.66;5073032;28;20039;-66
2022/12/08 00:46:41;;;;;;;56.03;36.95;;;;;;;9.69;100.00;99897.56;5072729;28;20447;-67
2022/12/08 00:49:06;;;;;;;55.22;36.38;;;;;;;9.25;100.00;99819.22;5072891;28;20039;-67
2022/12/08 00:51:33;;;;;;;53.97;35.25;;;;;;;9.73;100.00;99899.16;5072704;28;20033;-65
2022/12/08 00:53:59;;;;;;;52.45;34.47;;;;;;;9.60;100.00;99897.81;5072917;28;20040;-67
2022/12/08 00:56:25;;;;;;;45.75;28.98;;;;;;;9.54;100.00;99913.19;5073000;28;20036;-67
2022/12/08 00:58:50;;;;;;;43.78;28.00;;;;;;;9.54;100.00;99897.97;5073206;28;20047;-66
2022/12/08 01:01:16;;;;;;;43.60;26.92;;;;;;;9.03;100.00;99821.44;5072261;28;20048;-67
2022/12/08 01:03:42;;;;;;;40.95;26.23;;;;;;;9.49;100.00;99907.38;5072776;28;20052;-67
2022/12/08 01:06:08;;;;;;;40.20;26.13;;;;;;;8.79;100.00;99836.41;5072888;28;20532;-66
2022/12/08 01:08:35;;;;;;;40.53;25.30;;;;;;;9.14;100.00;99841.47;5073080;28;20028;-67
2022/12/08 01:11:09;;;;;;;43.22;25.90;;;;;;;9.59;100.00;99896.97;5072715;28;20025;-66
2022/12/08 01:13:34;;;;;;;38.90;24.35;;;;;;;9.64;100.00;99922.25;5051410;28;20473;-67
2022/12/08 01:16:00;;;;;;;40.92;24.50;;;;;;;9.07;100.00;99835.72;5072829;28;20438;-66
2022/12/08 01:18:27;;;;;;;39.60;24.65;;;;;;;8.60;100.00;99772.66;5054376;28;20028;-67
2022/12/08 01:20:52;;;;;;;39.00;24.60;;;;;;;8.71;100.00;99817.13;5054223;28;20411;-66
2022/12/08 01:23:17;;;;;;;41.05;25.33;;;;;;;9.27;100.00;99893.59;5072367;28;20028;-66
2022/12/08 01:25:43;;;;;;;38.60;25.33;;;;;;;9.30;100.00;99888.41;5072405;28;20020;-66
2022/12/08 01:28:08;;;;;;;38.38;24.40;;;;;;;8.94;100.00;99834.34;5072383;28;20031;-66
2022/12/08 01:30:34;;;;;;;39.70;25.15;;;;;;;9.38;100.00;99886.53;5072202;28;20028;-66
2022/12/08 01:33:00;;;;;;;38.47;24.15;;;;;;;9.40;100.00;99915.25;5072457;28;20108;-67
2022/12/08 01:35:26;;;;;;;34.92;24.35;;;;;;;9.26;100.00;99869.91;5072059;28;20852;-66
2022/12/08 01:37:51;;;;;;;37.85;24.67;;;;;;;9.10;100.00;99822.97;5072216;28;20028;-67
2022/12/08 01:40:16;;;;;;;40.03;24.17;;;;;;;8.85;100.00;99765.31;5053752;28;20115;-67
2022/12/08 01:42:42;;;;;;;42.42;25.80;;;;;;;9.53;100.00;99897.13;5072345;28;20410;-67
2022/12/08 01:45:33;;;;;;;40.70;25.88;;;;;;;9.58;100.00;99905.47;5071828;28;20028;-67
2022/12/08 01:48:04;;;;;;;40.75;25.48;;;;;;;8.87;100.00;99771.16;5068603;28;20044;-67
2022/12/08 01:50:30;;;;;;;41.25;25.27;;;;;;;9.66;100.00;99900.19;5070273;28;20120;-66
2022/12/08 01:53:05;;;;;;;40.53;25.23;;;;;;;9.60;100.00;99897.81;5071552;28;20059;-66
2022/12/08 01:55:46;;;;;;;41.15;25.92;;;;;;;9.26;100.00;99826.78;5071326;28;20040;-67
2022/12/08 01:58:19;;;;;;;39.03;26.17;;;;;;;9.26;100.00;99836.94;5071904;28;20039;-67
2022/12/08 02:00:46;;;;;;;40.90;26.80;;;;;;;9.54;100.00;99905.59;5053552;28;20095;-67
2022/12/08 02:03:21;;;;;;;46.38;27.50;;;;;;;9.47;100.00;99907.44;5071633;28;20033;-67
2022/12/08 02:05:47;;;;;;;41.10;27.38;;;;;;;9.19;100.00;99817.66;5071268;28;20024;-67
2022/12/08 02:08:13;;;;;;;41.33;26.30;;;;;;;8.81;100.00;99746.81;5071286;28;20460;-67
2022/12/08 02:10:41;;;;;;;45.63;27.15;;;;;;;9.17;100.00;99814.31;5071735;28;20032;-66
2022/12/08 02:13:11;;;;;;;41.95;28.30;;;;;;;9.51;100.00;99873.50;5071437;28;20056;-66
2022/12/08 02:16:00;;;;;;;48.78;29.02;;;;;;;9.69;100.00;99899.28;5070318;28;20450;-66
2022/12/08 02:18:43;;;;;;;43.95;28.60;;;;;;;9.71;100.00;99900.06;5062745;28;20495;-67
2022/12/08 02:21:26;;;;;;;39.97;26.88;;;;;;;9.73;100.00;99889.00;5071109;28;20589;-67
2022/12/08 02:24:14;;;;;;;44.05;27.40;;;;;;;9.57;100.00;99900.41;5071305;28;20474;-66
2022/12/08 02:27:10;;;;;;;44.17;28.40;;;;;;;9.10;100.00;99820.44;5071687;28;20111;-67
2022/12/08 02:29:44;;;;;;;44.28;26.98;;;;;;;9.54;100.00;99895.44;5071119;28;20056;-66
2022/12/08 02:32:21;;;;;;;44.05;26.85;;;;;;;9.72;100.00;99883.97;5071278;28;20032;-68
2022/12/08 02:34:59;;;;;;;45.53;27.08;;;;;;;9.67;100.00;99889.16;5070747;28;20031;-66
2022/12/08 02:37:33;;;;;;;40.63;27.48;;;;;;;9.71;100.00;99880.59;5070895;28;20040;-66
2022/12/08 02:40:08;;;;;;;41.35;26.90;;;;;;;9.60;100.00;99857.22;5070672;28;20460;-66
2022/12/08 02:42:49;;;;;;;44.15;27.27;;;;;;;9.18;100.00;99788.13;5070633;28;20031;-67
2022/12/08 02:45:24;;;;;;;42.95;27.02;;;;;;;9.60;100.00;99868.22;5070423;28;20040;-66
2022/12/08 02:47:50;;;;;;;43.88;27.95;;;;;;;9.45;100.00;99842.38;5070191;28;20045;-67
2022/12/08 02:50:16;;;;;;;43.38;27.92;;;;;;;9.25;100.00;99804.81;5052486;28;20123;-67
2022/12/08 02:52:46;;;;;;;47.88;32.15;;;;;;;9.68;100.00;99873.06;5052936;28;20115;-67
2022/12/08 02:55:23;;;;;;;50.90;32.50;;;;;;;9.44;100.00;99836.47;5069249;28;20410;-68
2022/12/08 02:58:23;;;;;;;47.95;31.80;;;;;;;9.18;100.00;99794.88;5070643;28;20120;-66
2022/12/08 03:01:15;;;;;;;47.78;31.35;;;;;;;9.56;100.00;99886.06;5057102;28;20048;-66
2022/12/08 03:03:57;;;;;;;46.67;32.00;;;;;;;9.03;100.00;99802.88;5070645;28;20036;-67
2022/12/08 03:06:37;;;;;;;47.80;31.83;;;;;;;9.46;100.00;99882.94;5070558;28;20028;-66
2022/12/08 03:09:16;;;;;;;45.85;31.15;;;;;;;9.59;100.00;99876.69;5070431;28;20034;-65
2022/12/08 03:11:49;;;;;;;48.72;32.08;;;;;;;9.04;100.00;99799.47;5070503;28;20025;-66
2022/12/08 03:14:16;;;;;;;51.80;31.23;;;;;;;9.14;100.00;99799.22;5070016;28;20484;-67
2022/12/08 03:16:47;;;;;;;47.33;30.98;;;;;;;9.09;100.00;99800.19;5051874;28;20391;-66
2022/12/08 03:19:18;;;;;;;49.25;31.17;;;;;;;9.55;100.00;99886.94;5070153;28;20410;-66
2022/12/08 03:21:49;;;;;;;47.72;31.25;;;;;;;9.61;100.00;99876.63;5070090;28;20025;-67
2022/12/08 03:24:16;;;;;;;47.65;31.55;;;;;;;9.01;100.00;99785.19;5069622;28;20067;-66
2022/12/08 03:26:47;;;;;;;48.22;31.58;;;;;;;9.73;100.00;99890.69;5051949;28;20438;-66
2022/12/08 03:29:13;;;;;;;50.92;32.72;;;;;;;9.52;100.00;99854.03;5050648;28;20040;-66
2022/12/08 03:31:44;;;;;;;49.83;32.63;;;;;;;8.77;100.00;99754.53;5081415;28;20557;-66
2022/12/08 03:34:11;;;;;;;47.42;30.00;;;;;;;9.12;100.00;99817.84;5072263;28;20089;-67
2022/12/08 03:36:37;;;;;;;41.50;27.50;;;;;;;8.99;100.00;99808.91;5072024;28;20554;-67
2022/12/08 03:39:02;;;;;;;41.92;26.80;;;;;;;8.92;100.00;99790.47;5090539;28;20110;-67
2022/12/08 03:41:28;;;;;;;40.15;25.27;;;;;;;9.07;100.00;99817.16;5089925;28;20036;-67
2022/12/08 03:43:57;;;;;;;41.25;25.98;;;;;;;9.13;100.00;99809.41;5071840;28;20040;-67
2022/12/08 03:46:25;;;;;;;40.75;25.52;;;;;;;9.25;100.00;99829.38;5075145;28;20040;-67
2022/12/08 03:48:50;;;;;;;37.38;24.30;;;;;;;9.25;100.00;99830.19;5057961;28;20028;-66
2022/12/08 03:51:16;;;;;;;40.38;26.27;;;;;;;8.86;100.00;99803.28;5050294;28;20033;-69
2022/12/08 03:53:42;;;;;;;36.78;24.83;;;;;;;9.49;100.00;99894.69;5049763;28;20110;-66
2022/12/08 03:56:14;;;;;;;40.08;25.95;;;;;;;9.66;100.00;99894.28;5050005;28;20506;-66
2022/12/08 03:58:40;;;;;;;41.50;25.13;;;;;;;8.73;100.00;99741.09;5050246;28;20480;-66
2022/12/08 04:01:06;;;;;;;40.60;26.50;;;;;;;9.14;100.00;99806.81;5050380;28;20095;-66
2022/12/08 04:03:31;;;;;;;38.53;26.17;;;;;;;8.93;100.00;99793.84;5050251;28;20067;-65
2022/12/08 04:05:57;;;;;;;34.50;23.30;;;;;;;10.76;100.00;99784.41;5049916;28;20021;-73
2022/12/08 04:08:22;;;;;;;43.67;25.60;;;;;;;10.02;100.00;99878.91;5050402;28;20067;-70
2022/12/08 04:10:47;;;;;;;35.88;23.73;;;;;;;9.54;100.00;99877.66;5033081;28;20064;-74
2022/12/08 04:13:13;;;;;;;42.75;24.42;;;;;;;9.05;100.00;99812.09;5049822;28;20443;-72
2022/12/08 04:15:38;;;;;;;40.67;23.58;;;;;;;9.48;100.00;99872.75;5032516;28;20025;-72
2022/12/08 04:18:04;;;;;;;36.78;24.40;;;;;;;9.38;100.00;99874.69;5050070;28;20090;-73
2022/12/08 04:20:29;;;;;;;39.75;24.48;;;;;;;8.32;100.00;99698.19;5071967;28;20032;-72
2022/12/08 04:22:54;;;;;;;42.47;25.40;;;;;;;9.29;100.00;99841.94;5051343;28;20038;-73
2022/12/08 04:25:20;;;;;;;40.28;24.30;;;;;;;9.32;100.00;99815.66;5087605;28;20486;-67
2022/12/08 04:27:45;;;;;;;40.30;24.38;;;;;;;9.39;100.00;99860.28;5072260;28;20127;-68
2022/12/08 04:30:11;;;;;;;41.40;24.20;;;;;;;9.55;100.00;99876.78;5072286;28;20024;-68
2022/12/08 04:32:36;;;;;;;41.20;25.33;;;;;;;9.66;100.00;99871.44;5063724;28;20351;-70
2022/12/08 04:35:02;;;;;;;38.33;24.95;;;;;;;9.69;100.00;99868.81;5067484;28;20040;-70
2022/12/08 04:37:27;;;;;;;43.28;25.00;;;;;;;9.69;100.00;99899.28;5076253;28;20040;-70
2022/12/08 04:39:53;;;;;;;41.85;25.48;;;;;;;9.31;100.00;99859.66;5093684;28;20038;-70
2022/12/08 04:42:18;;;;;;;42.70;25.73;;;;;;;8.75;100.00;99801.00;5090412;28;20487;-70
2022/12/08 04:44:44;;;;;;;41.70;27.10;;;;;;;9.18;100.00;99856.59;5074814;28;20101;-68
2022/12/08 04:47:09;;;;;;;42.45;26.52;;;;;;;8.93;100.00;99814.13;5093022;28;20032;-67
2022/12/08 04:49:34;;;;;;;42.25;26.75;;;;;;;9.00;100.00;99797.88;5092734;28;20032;-67
2022/12/08 04:52:00;;;;;;;43.55;27.27;;;;;;;8.80;100.00;99810.19;5092784;28;20028;-69
2022/12/08 04:54:25;;;;;;;48.70;29.70;;;;;;;9.05;100.00;99850.13;5079872;28;20865;-67
2022/12/08 04:56:51;;;;;;;49.90;29.00;;;;;;;9.39;100.00;99876.34;5071873;28;20029;-66
2022/12/08 04:59:16;;;;;;;50.28;28.13;;;;;;;9.36;100.00;99898.41;5054508;28;20037;-66
2022/12/08 05:01:42;;;;;;;41.70;26.48;;;;;;;9.10;100.00;99843.25;5092008;28;20505;-68
2022/12/08 05:04:07;;;;;;;47.03;27.30;;;;;;;9.39;100.00;99893.25;5092643;28;20093;-68
2022/12/08 05:06:33;;;;;;;43.38;27.63;;;;;;;8.71;100.00;99768.19;5071102;28;20029;-68
2022/12/08 05:08:58;;;;;;;47.53;29.20;;;;;;;9.20;100.00;99887.81;5070953;28;20029;-68
2022/12/08 05:11:23;;;;;;;53.45;32.72;;;;;;;8.94;100.00;99848.72;5074623;28;20180;-68
2022/12/08 05:13:49;;;;;;;51.63;32.35;;;;;;;8.96;100.00;99825.00;5093250;28;20379;-68
2022/12/08 05:16:14;;;;;;;49.08;33.00;;;;;;;8.67;100.00;99804.59;5076891;28;20032;-68
2022/12/08 05:18:41;;;;;;;58.55;34.42;;;;;;;9.17;100.00;99913.22;5072393;28;20043;-68
2022/12/08 05:21:08;;;;;;;57.85;36.05;;;;;;;9.17;100.00;99907.34;5072522;28;20063;-68
2022/12/08 05:23:34;;;;;;;55.67;33.53;;;;;;;9.04;100.00;99916.09;5079233;28;20039;-68
2022/12/08 05:26:00;;;;;;;67.03;36.85;;;;;;;8.78;100.00;99848.25;5092769;28;20074;-68
2022/12/08 05:28:32;;;;;;;68.97;38.80;;;;;;;9.13;100.00;99920.97;5092695;28;20469;-67
2022/12/08 05:30:57;;;;;;;44.80;25.17;;;;;;;10.12;100.00;99808.41;5092092;28;20490;-72
2022/12/08 05:33:23;;;;;;;58.38;34.72;;;;;;;9.07;100.00;99863.59;5073700;28;20043;-69
2022/12/08 05:35:48;;;;;;;56.00;34.30;;;;;;;9.11;100.00;99899.88;5060744;28;20035;-69
2022/12/08 05:38:14;;;;;;;65.95;37.50;;;;;;;9.20;100.00;99917.41;5068504;28;20724;-68
2022/12/08 05:40:40;;;;;;;66.47;39.10;;;;;;;8.73;100.00;99839.94;5070600;28;20032;-69
2022/12/08 05:43:06;;;;;;;67.95;37.53;;;;;;;9.21;100.00;99899.59;5070542;28;20032;-69
2022/12/08 05:45:32;;;;;;;68.30;39.25;;;;;;;8.68;100.00;99808.78;5070785;28;20028;-70
2022/12/08 05:47:58;;;;;;;66.35;38.45;;;;;;;9.17;100.00;99889.59;5071505;28;20033;-69
2022/12/08 05:50:23;;;;;;;56.45;34.83;;;;;;;8.92;100.00;99845.38;5069631;28;20028;-69
2022/12/08 05:52:49;;;;;;;62.10;34.25;;;;;;;8.79;100.00;99822.06;5071549;28;20024;-69
2022/12/08 05:55:14;;;;;;;64.78;37.72;;;;;;;9.36;100.00;99919.56;5071443;28;20058;-71
2022/12/08 05:57:40;;;;;;;69.00;42.40;;;;;;;9.46;100.00;99915.09;5069835;28;20432;-69
2022/12/08 06:00:06;;;;;;;81.35;55.85;;;;;;;9.01;100.00;99822.38;5069769;28;20049;-71
2022/12/08 06:02:31;;;;;;;81.57;52.63;;;;;;;9.46;100.00;99917.63;5069772;28;20189;-69
2022/12/08 06:04:56;;;;;;;65.97;44.15;;;;;;;8.70;100.00;99769.03;5070155;28;20186;-68
2022/12/08 06:07:22;;;;;;;61.20;41.70;;;;;;;9.16;100.00;99860.03;5071588;28;20039;-69
2022/12/08 06:09:47;;;;;;;59.42;39.22;;;;;;;8.95;100.00;99828.44;5072146;28;20139;-70
2022/12/08 06:12:13;;;;;;;60.50;38.22;;;;;;;9.06;100.00;99835.75;5071413;28;20029;-70
2022/12/08 06:14:39;;;;;;;63.40;39.85;;;;;;;9.58;100.00;99918.16;5071530;28;20169;-67
2022/12/08 06:17:05;;;;;;;61.38;40.05;;;;;;;9.06;100.00;99818.84;5072032;28;20032;-67
2022/12/08 06:19:31;;;;;;;66.60;39.75;;;;;;;9.53;100.00;99897.13;5071089;28;20047;-70
2022/12/08 06:21:56;;;;;;;59.78;37.15;;;;;;;9.01;100.00;99861.25;5071104;28;20024;-68
2022/12/08 06:24:22;;;;;;;64.38;41.38;;;;;;;9.38;100.00;99922.06;5071404;28;20036;-67
2022/12/08 06:26:47;;;;;;;64.82;42.35;;;;;;;8.95;100.00;99820.81;5069643;28;20036;-69
2022/12/08 06:29:13;;;;;;;64.93;40.25;;;;;;;9.43;100.00;99907.53;5070994;28;20040;-67
2022/12/08 06:31:39;;;;;;;55.88;35.53;;;;;;;9.45;100.00;99923.56;5071711;28;20051;-67
2022/12/08 06:34:05;;;;;;;68.38;39.15;;;;;;;9.58;100.00;99922.41;5071341;28;20493;-67
2022/12/08 06:36:31;;;;;;;57.92;37.50;;;;;;;9.47;100.00;99922.66;5070598;28;20118;-70
2022/12/08 06:38:57;;;;;;;57.05;35.50;;;;;;;9.15;100.00;99865.97;5070831;28;20502;-68
2022/12/08 06:41:22;;;;;;;58.83;35.60;;;;;;;9.36;100.00;99909.41;5071335;28;20032;-68
2022/12/08 06:43:48;;;;;;;56.75;37.05;;;;;;;9.55;100.00;99927.53;5071219;28;20035;-68
2022/12/08 06:46:17;;;;;;;62.85;41.15;;;;;;;9.67;100.00;99939.09;5071256;28;20032;-68
2022/12/08 06:48:43;;;;;;;66.00;39.60;;;;;;;9.31;100.00;99923.09;5070889;28;20119;-69
2022/12/08 06:51:11;;;;;;;63.88;42.10;;;;;;;9.68;100.00;99951.75;5069909;28;20025;-67
2022/12/08 06:53:37;;;;;;;73.10;46.80;;;;;;;9.36;100.00;99928.88;5070762;28;20064;-68
2022/12/08 06:56:03;;;;;;;83.78;50.60;;;;;;;8.86;100.00;99868.34;5069409;28;20064;-68
2022/12/08 06:58:28;;;;;;;83.97;52.35;;;;;;;9.45;100.00;99931.16;5070505;28;20024;-69
2022/12/08 07:00:54;;;;;;;82.20;50.03;;;;;;;9.33;100.00;99881.56;5070861;28;20108;-69
2022/12/08 07:03:19;;;;;;;70.88;45.72;;;;;;;9.27;100.00;99878.38;5070432;28;20119;-69
2022/12/08 07:05:45;;;;;;;59.17;39.83;;;;;;;8.79;100.00;99809.38;5070261;28;20025;-73
2022/12/08 07:08:10;;;;;;;61.88;38.10;;;;;;;9.46;100.00;99937.91;5070674;28;20087;-69
2022/12/08 07:10:36;;;;;;;63.13;39.25;;;;;;;9.83;100.00;99946.28;5070928;28;20029;-69
2022/12/08 07:13:02;;;;;;;63.20;39.55;;;;;;;9.93;100.00;99929.09;5070697;28;20062;-69
2022/12/08 07:15:27;;;;;;;65.45;38.58;;;;;;;9.87;100.00;99947.03;5086346;28;20028;-70
2022/12/08 07:17:53;;;;;;;60.42;38.10;;;;;;;9.89;100.00;99927.50;5070881;28;20043;-71
2022/12/08 07:20:18;;;;;;;62.80;37.78;;;;;;;9.34;100.00;99862.94;5069119;28;20036;-68
2022/12/08 07:22:51;;;;;;;86.35;56.42;;;;;;;9.57;100.00;99913.09;5070781;28;20040;-68
2022/12/08 07:25:17;;;;;;;63.22;42.20;;;;;;;9.93;100.00;99975.66;5070530;28;20094;-69
2022/12/08 07:27:44;;;;;;;60.42;38.03;;;;;;;9.65;100.00;99977.19;5070548;28;20031;-68
2022/12/08 07:30:10;;;;;;;58.40;36.30;;;;;;;9.62;100.00;99984.91;5070377;28;20410;-68
2022/12/08 07:32:38;;;;;;;73.22;40.42;;;;;;;9.66;100.00;99983.13;5069930;28;20028;-71
2022/12/08 07:35:05;;;;;;;60.03;34.67;;;;;;;9.07;100.00;99903.34;5068791;28;20047;-69
2022/12/08 07:37:36;;;;;;;53.83;32.20;;;;;;;9.73;100.00;99977.00;5070450;28;20036;-69
2022/12/08 07:40:02;;;;;;;50.25;31.20;;;;;;;9.23;100.00;99912.28;5069307;28;20430;-69
2022/12/08 07:42:28;;;;;;;55.03;32.58;;;;;;;9.35;100.00;99912.81;5069024;28;20577;-69
2022/12/08 07:44:53;;;;;;;56.58;31.13;;;;;;;9.52;100.00;99970.75;5070602;28;20040;-69
2022/12/08 07:47:19;;;;;;;51.85;30.88;;;;;;;9.91;100.00;100012.09;5069922;28;20036;-69
2022/12/08 07:49:44;;;;;;;54.05;31.23;;;;;;;9.15;100.00;99871.06;5070827;28;20033;-68
2022/12/08 07:52:10;;;;;;;59.72;33.95;;;;;;;9.69;100.00;99958.47;5070169;28;20115;-69
2022/12/08 07:54:35;;;;;;;59.30;34.78;;;;;;;9.74;100.00;99945.69;5070445;28;20089;-69
2022/12/08 07:57:02;;;;;;;55.40;34.50;;;;;;;9.93;100.00;99995.97;5070204;28;20025;-69
2022/12/08 07:59:28;;;;;;;54.85;35.55;;;;;;;9.48;100.00;99939.56;5069130;28;20071;-68
2022/12/08 08:01:53;;;;;;;56.22;33.80;;;;;;;9.16;100.00;99948.78;5068464;28;20029;-69
2022/12/08 08:04:19;;;;;;;53.05;32.05;;;;;;;9.89;100.00;100007.06;5071131;28;20036;-68
2022/12/08 08:06:44;;;;;;;48.92;29.55;;;;;;;9.88;100.00;100023.19;5073932;28;20081;-69
2022/12/08 08:09:10;;;;;;;47.05;28.67;;;;;;;9.88;100.00;100030.81;5074361;28;20025;-68
2022/12/08 08:11:36;;;;;;;47.13;28.17;;;;;;;9.20;100.00;99913.19;5072520;28;20123;-68
2022/12/08 08:14:01;;;;;;;51.22;28.27;;;;;;;9.80;100.00;100042.00;5073891;28;20040;-68
2022/12/08 08:16:27;;;;;;;43.05;26.88;;;;;;;9.61;100.00;99995.91;5071750;28;20040;-69
2022/12/08 08:18:52;;;;;;;44.22;28.38;;;;;;;9.66;100.00;99950.97;5073268;28;20706;-67
2022/12/08 08:21:19;;;;;;;62.80;43.30;;;;;;;10.11;100.00;100028.56;5074107;28;20128;-68
2022/12/08 08:23:44;;;;;;;49.20;29.83;;;;;;;10.11;100.00;100027.72;5073412;28;20121;-68
2022/12/08 08:26:10;;;;;;;50.03;29.20;;;;;;;10.27;100.00;100034.06;5073865;28;20070;-68
2022/12/08 08:28:35;;;;;;;48.45;29.08;;;;;;;10.40;100.00;100025.25;5073820;28;20024;-69
2022/12/08 08:31:01;;;;;;;41.83;25.70;;;;;;;9.82;100.00;99888.78;5072232;28;20418;-69
2022/12/08 08:33:26;;;;;;;43.55;27.98;;;;;;;10.72;100.00;100029.44;5073851;28;20032;-69
2022/12/08 08:35:53;;;;;;;43.88;27.48;;;;;;;10.34;100.00;99949.16;5073601;28;20017;-69
2022/12/08 08:38:19;;;;;;;43.05;27.38;;;;;;;10.20;100.00;99901.28;5073516;28;20047;-70
2022/12/08 08:40:44;;;;;;;44.65;28.63;;;;;;;10.71;100.00;100013.38;5073757;28;20483;-68
2022/12/08 08:43:27;;;;;;;55.42;37.20;;;;;;;10.37;100.00;99962.66;5071473;28;20029;-69
2022/12/08 08:45:55;;;;;;;58.72;39.17;;;;;;;10.79;100.00;100036.91;5073423;28;20384;-69
2022/12/08 08:48:20;;;;;;;65.28;42.25;;;;;;;10.60;100.00;100027.28;5073327;28;20107;-68
2022/12/08 08:50:45;;;;;;;70.90;45.28;;;;;;;10.66;100.00;99977.06;5073180;28;20119;-69
2022/12/08 08:53:11;;;;;;;60.65;39.28;;;;;;;10.56;100.00;99939.28;5073124;28;20107;-69
2022/12/08 08:55:38;;;;;;;56.53;36.75;;;;;;;11.07;100.00;99973.34;5071603;28;20032;-69
2022/12/08 08:58:03;;;;;;;47.50;31.00;;;;;;;11.22;100.00;100024.59;5071926;28;20036;-69
2022/12/08 09:00:29;;;;;;;44.65;29.02;;;;;;;10.90;100.00;100017.06;5072862;28;20117;-68
2022/12/08 09:02:54;;;;;;;52.30;28.95;;;;;;;10.80;100.00;99954.63;5073392;28;20556;-68
2022/12/08 09:05:19;;;;;;;48.65;30.70;;;;;;;11.24;100.00;99994.84;5073250;28;20060;-67
2022/12/08 09:07:45;;;;;;;46.15;29.25;;;;;;;11.23;100.00;100020.34;5071587;28;20499;-68
2022/12/08 09:10:10;;;;;;;44.58;29.60;;;;;;;10.50;100.00;99930.09;5073088;28;20086;-68
2022/12/08 09:12:36;;;;;;;40.08;25.98;;;;;;;10.91;100.00;99972.97;5071335;28;20503;-68
2022/12/08 09:15:01;;;;;;;36.28;24.50;;;;;;;11.01;100.00;100012.50;5071705;28;20031;-68
2022/12/08 09:17:27;;;;;;;33.83;23.15;;;;;;;11.32;100.00;100027.69;5071324;28;20035;-68
2022/12/08 09:19:52;;;;;;;37.42;23.13;;;;;;;10.62;100.00;99934.00;5072653;28;20036;-69
2022/12/08 09:22:18;;;;;;;35.42;22.10;;;;;;;11.15;100.00;100023.09;5073124;28;20410;-69
2022/12/08 09:24:43;;;;;;;33.88;23.13;;;;;;;11.37;100.00;100035.19;5072560;28;20119;-69
2022/12/08 09:27:08;;;;;;;37.33;23.33;;;;;;;11.29;100.00;100009.94;5071402;28;20123;-69
2022/12/08 09:29:34;;;;;;;40.13;24.98;;;;;;;11.39;100.00;100020.72;5070918;28;20119;-69
2022/12/08 09:31:59;;;;;;;39.63;25.90;;;;;;;11.49;100.00;100017.00;5072617;28;20560;-68
2022/12/08 09:34:25;;;;;;;40.60;25.67;;;;;;;11.14;100.00;100010.44;5072201;28;20456;-68
2022/12/08 09:36:50;;;;;;;37.50;24.60;;;;;;;10.83;100.00;99951.16;5071996;28;20025;-69
2022/12/08 09:39:15;;;;;;;40.28;25.58;;;;;;;11.26;100.00;100010.91;5072507;28;20028;-69
2022/12/08 09:41:41;;;;;;;41.90;27.98;;;;;;;11.38;100.00;100007.16;5071238;28;20029;-68
2022/12/08 09:44:16;;;;;;;38.30;24.42;;;;;;;11.41;100.00;100012.13;5072343;28;20463;-69
2022/12/08 09:46:42;;;;;;;38.15;23.92;;;;;;;10.90;100.00;99948.41;5072612;28;20075;-69
2022/12/08 09:49:15;;;;;;;39.70;23.80;;;;;;;11.23;100.00;99988.06;5070615;28;20029;-69
2022/12/08 09:51:43;;;;;;;36.55;23.80;;;;;;;11.26;100.00;100013.44;5072025;28;20052;-69
2022/12/08 09:54:20;;;;;;;39.13;24.75;;;;;;;10.88;100.00;99931.50;5071859;28;20036;-69
2022/12/08 09:56:47;;;;;;;44.63;25.50;;;;;;;11.59;100.00;100014.09;5072317;28;20061;-69
2022/12/08 09:59:28;;;;;;;43.13;24.95;;;;;;;11.53;100.00;100011.75;5071812;28;20446;-69
2022/12/08 10:01:54;;;;;;;40.83;25.13;;;;;;;11.27;100.00;99997.28;5071926;28;20028;-69
2022/12/08 10:04:19;;;;;;;44.97;28.70;;;;;;;11.42;100.00;100011.25;5069884;28;20051;-70
2022/12/08 10:07:01;;;;;;;49.35;30.23;;;;;;;11.34;100.00;100010.66;5072202;28;20414;-69
2022/12/08 10:09:57;;;;;;;47.95;31.48;;;;;;;10.83;100.00;99929.13;5072011;28;20025;-68
2022/12/08 10:12:38;;;;;;;46.10;28.65;;;;;;;10.89;100.00;99910.31;5087236;28;20367;-68
2022/12/08 10:15:31;;;;;;;52.30;30.58;;;;;;;11.51;100.00;100005.88;5071741;28;20025;-69
2022/12/08 10:18:01;;;;;;;44.42;28.65;;;;;;;11.21;100.00;99977.09;5071552;28;20028;-69
2022/12/08 10:20:37;;;;;;;50.45;29.75;;;;;;;11.42;100.00;100002.78;5072211;28;20559;-69
2022/12/08 10:23:08;;;;;;;49.15;30.48;;;;;;;11.66;100.00;99997.81;5071014;28;20029;-69
2022/12/08 10:25:51;;;;;;;52.20;33.13;;;;;;;11.35;100.00;99934.25;5071702;28;20468;-70
2022/12/08 10:28:16;;;;;;;49.55;31.58;;;;;;;11.43;100.00;99911.09;4355271;28;10000824;-69
2022/12/08 10:30:42;;;;;;;51.17;32.25;;;;;;;11.72;100.00;99961.94;5050144;28;20032;-69
2022/12/08 10:33:16;;;;;;;51.55;33.08;;;;;;;11.45;100.00;99909.34;5066881;28;20044;-69
2022/12/08 10:35:55;;;;;;;49.90;31.73;;;;;;;11.21;100.00;99887.25;5067806;28;20619;-70
2022/12/08 10:38:35;;;;;;;63.03;34.05;;;;;;;11.08;100.00;99829.97;5067567;28;20622;-69
2022/12/08 10:41:03;;;;;;;49.90;31.80;;;;;;;11.93;100.00;99970.56;5067552;28;20074;-69
2022/12/08 10:43:30;;;;;;;43.17;29.80;;;;;;;12.66;100.00;99943.31;5069076;28;20044;-68
2022/12/08 10:46:17;;;;;;;46.95;30.50;;;;;;;11.83;100.00;99970.06;5052013;28;20036;-69
2022/12/08 10:48:56;;;;;;;48.85;30.30;;;;;;;11.65;100.00;99901.03;5068698;28;20124;-68
2022/12/08 10:51:28;;;;;;;46.90;29.60;;;;;;;11.25;100.00;99807.38;5052332;28;20923;-67
2022/12/08 10:53:54;;;;;;;52.90;29.90;;;;;;;11.61;100.00;99882.47;5068690;28;20045;-69
2022/12/08 10:56:25;;;;;;;48.00;31.33;;;;;;;11.83;100.00;99939.50;5068664;28;20041;-69
2022/12/08 10:59:04;;;;;;;43.80;28.23;;;;;;;11.78;100.00;99943.91;5068227;28;20534;-69
2022/12/08 11:01:37;;;;;;;44.63;28.98;;;;;;;11.65;100.00;99876.41;5071752;28;20056;-68
2022/12/08 11:04:09;;;;;;;46.20;28.35;;;;;;;11.86;100.00;99964.03;5070860;28;20031;-68
2022/12/08 11:06:38;;;;;;;46.15;29.67;;;;;;;11.96;100.00;99943.28;5070961;28;20506;-69
2022/12/08 11:09:18;;;;;;;49.80;29.15;;;;;;;11.92;100.00;99954.44;5070476;28;20031;-68
2022/12/08 11:11:48;;;;;;;47.25;29.50;;;;;;;11.93;100.00;99953.59;5069652;28;20035;-67
2022/12/08 11:14:43;;;;;;;47.35;29.58;;;;;;;11.90;100.00;99947.75;5069804;28;20111;-68
2022/12/08 11:17:13;;;;;;;49.45;30.65;;;;;;;12.01;100.00;99941.41;5065726;28;20040;-68
2022/12/08 11:20:08;;;;;;;49.45;28.98;;;;;;;11.76;100.00;99894.75;5071033;28;20017;-69
2022/12/08 11:22:40;;;;;;;45.60;27.52;;;;;;;11.80;100.00;99939.59;5070922;28;20047;-67
2022/12/08 11:25:06;;;;;;;61.25;34.97;;;;;;;12.00;100.00;99939.72;5071215;28;20562;-68
2022/12/08 11:27:32;;;;;;;53.22;29.02;;;;;;;12.07;100.00;99942.91;5052889;28;20043;-68